Amalia — SXMT — position and weather

sailwx.info

Track history (hours):
 
Tides and Currents Weather Stations Pressure Air Temp Water Temp Dewpoint Dewpoint Depression Visibility Wind Speed Wind Dir Waves Ship Positions

Amalia

Last reported at 2014-Sep-26 13:03 UTC. Time now 2014-Oct-25 11:20 UTC.
Position N 01°27' E 103°12'.
Warning: this ship's position is 28 days out of date.

Length 225 m; draft 8.4 m.

Type: Cargo ship. MMSI: 239652000.

Date/timePositionNaut miles runAvg speedWind from/ knotsBaromVisibWave heightAir tempDewpointWater temp
2014-Sep-26 13:03N 01°27' E 103°12'713.0
2014-Sep-26 12:33N 01°22' E 103°17'1313.6
2014-Sep-26 11:34N 01°14' E 103°28'1313.4
2014-Sep-26 10:33N 01°10' E 103°41'10 9.7
2014-Sep-26 09:34N 01°11' E 103°50'8 7.9
2014-Sep-26 08:34N 01°15' E 103°57'2 2.3
2014-Sep-26 07:32N 01°17' E 103°58'0 0.0
2014-Sep-26 06:32N 01°17' E 103°58'0 0.3
2014-Sep-26 05:32N 01°17' E 103°58'0 0.1
2014-Sep-26 04:32N 01°17' E 103°58'0 0.0
2014-Sep-26 03:32N 01°17' E 103°58'0 0.0
2014-Sep-26 02:32N 01°17' E 103°58'0 0.0
2014-Sep-26 01:32N 01°17' E 103°58'0 0.0
2014-Sep-26 00:32N 01°17' E 103°58'0 0.1
2014-Sep-25 23:32N 01°17' E 103°58'0 0.1
2014-Sep-25 22:32N 01°17' E 103°58'0 0.0
2014-Sep-25 21:32N 01°17' E 103°58'0 0.0
2014-Sep-25 20:32N 01°17' E 103°58'0 0.0
2014-Sep-25 19:32N 01°17' E 103°58'0 0.0
2014-Sep-25 18:32N 01°17' E 103°58'0 0.2
2014-Sep-25 17:32N 01°17' E 103°58'0 0.1
2014-Sep-25 16:32N 01°17' E 103°58'0 0.0
2014-Sep-25 15:29N 01°17' E 103°58'0 0.1
2014-Sep-25 14:31N 01°17' E 103°58'2 2.3
2014-Sep-25 13:33N 01°15' E 103°57'6 5.4
2014-Sep-25 12:32N 01°16' E 104°03'  
2014-Sep-19 21:33N 23°18' E 117°29'1413.0
2014-Sep-19 20:30N 23°27' E 117°40'1313.6
2014-Sep-19 19:33N 23°34' E 117°51'1414.0
2014-Sep-19 18:33N 23°42' E 118°04'1514.3
2014-Sep-19 17:31N 23°51' E 118°17'6214.3
2014-Sep-19 13:10N 24°29' E 119°11'913.5
2014-Sep-19 12:32N 24°35' E 119°18'33612.0
2014-Sep-18 08:33N 29°26' E 122°26'10 9.9
2014-Sep-18 07:33N 29°36' E 122°27'1010.2
2014-Sep-18 06:33N 29°44' E 122°20'1111.2
2014-Sep-18 05:33N 29°52' E 122°11'1211.8
2014-Sep-18 04:33N 29°57' E 121°59'7 6.7
2014-Sep-18 03:29N 29°57' E 121°51'0 0.0
2014-Sep-18 02:14N 29°57' E 121°51'0 0.0
2014-Sep-18 01:14N 29°57' E 121°51'0 0.0
2014-Sep-17 23:32N 29°57' E 121°51'0 0.0
2014-Sep-17 22:23N 29°57' E 121°51'0 0.0
2014-Sep-17 20:20N 29°57' E 121°51'0 0.0
2014-Sep-17 19:23N 29°57' E 121°51'0 0.0
2014-Sep-17 18:29N 29°57' E 121°51'0 0.0
2014-Sep-17 16:29N 29°57' E 121°51'0 0.0
2014-Sep-17 15:11N 29°57' E 121°51'0 0.0
2014-Sep-17 14:29N 29°57' E 121°51'0 0.0
2014-Sep-17 12:29N 29°57' E 121°51'0 0.0
2014-Sep-17 10:17N 29°57' E 121°51'0 0.0
2014-Sep-17 08:29N 29°57' E 121°51'0 0.0
2014-Sep-17 07:29N 29°57' E 121°51'0 0.0
2014-Sep-17 06:29N 29°57' E 121°51'0 0.0
2014-Sep-17 05:32N 29°57' E 121°51'0 0.0
2014-Sep-17 02:23N 29°57' E 121°51'0 0.0
2014-Sep-17 00:11N 29°57' E 121°51'0 0.0
2014-Sep-16 23:29N 29°57' E 121°51'0 0.0
2014-Sep-16 20:05N 29°57' E 121°51'0 0.0
2014-Sep-16 19:23N 29°57' E 121°51'0 0.0
2014-Sep-16 18:29N 29°57' E 121°51'0 0.0
2014-Sep-16 17:23N 29°57' E 121°51'0 0.0
2014-Sep-16 16:29N 29°57' E 121°51'0 0.0
2014-Sep-16 13:17N 29°57' E 121°51'  
Track history (hours):
 
Tides and Currents Weather Stations Pressure Air Temp Water Temp Dewpoint Dewpoint Depression Visibility Wind Speed Wind Dir Waves Ship Positions

Amalia

Last reported at 2014-Sep-26 13:03 UTC. Time now 2014-Oct-25 11:20 UTC.
Position N 01°27' E 103°12'.
Warning: this ship's position is 28 days out of date.

Length 225 m; draft 8.4 m.

Type: Cargo ship. MMSI: 239652000.

Date/timePositionNaut miles runAvg speedWind from/ knotsBaromVisibWave heightAir tempDewpointWater temp
2014-Sep-26 13:03N 01°27' E 103°12'713.0
2014-Sep-26 12:33N 01°22' E 103°17'1313.6
2014-Sep-26 11:34N 01°14' E 103°28'1313.4
2014-Sep-26 10:33N 01°10' E 103°41'10 9.7
2014-Sep-26 09:34N 01°11' E 103°50'8 7.9
2014-Sep-26 08:34N 01°15' E 103°57'2 2.3
2014-Sep-26 07:32N 01°17' E 103°58'0 0.0
2014-Sep-26 06:32N 01°17' E 103°58'0 0.3
2014-Sep-26 05:32N 01°17' E 103°58'0 0.1
2014-Sep-26 04:32N 01°17' E 103°58'0 0.0
2014-Sep-26 03:32N 01°17' E 103°58'0 0.0
2014-Sep-26 02:32N 01°17' E 103°58'0 0.0
2014-Sep-26 01:32N 01°17' E 103°58'0 0.0
2014-Sep-26 00:32N 01°17' E 103°58'0 0.1
2014-Sep-25 23:32N 01°17' E 103°58'0 0.1
2014-Sep-25 22:32N 01°17' E 103°58'0 0.0
2014-Sep-25 21:32N 01°17' E 103°58'0 0.0
2014-Sep-25 20:32N 01°17' E 103°58'0 0.0
2014-Sep-25 19:32N 01°17' E 103°58'0 0.0
2014-Sep-25 18:32N 01°17' E 103°58'0 0.2
2014-Sep-25 17:32N 01°17' E 103°58'0 0.1
2014-Sep-25 16:32N 01°17' E 103°58'0 0.0
2014-Sep-25 15:29N 01°17' E 103°58'0 0.1
2014-Sep-25 14:31N 01°17' E 103°58'2 2.3
2014-Sep-25 13:33N 01°15' E 103°57'6 5.4
2014-Sep-25 12:32N 01°16' E 104°03'  
2014-Sep-19 21:33N 23°18' E 117°29'1413.0
2014-Sep-19 20:30N 23°27' E 117°40'1313.6
2014-Sep-19 19:33N 23°34' E 117°51'1414.0
2014-Sep-19 18:33N 23°42' E 118°04'1514.3
2014-Sep-19 17:31N 23°51' E 118°17'6214.3
2014-Sep-19 13:10N 24°29' E 119°11'913.5
2014-Sep-19 12:32N 24°35' E 119°18'33612.0
2014-Sep-18 08:33N 29°26' E 122°26'10 9.9
2014-Sep-18 07:33N 29°36' E 122°27'1010.2
2014-Sep-18 06:33N 29°44' E 122°20'1111.2
2014-Sep-18 05:33N 29°52' E 122°11'1211.8
2014-Sep-18 04:33N 29°57' E 121°59'7 6.7
2014-Sep-18 03:29N 29°57' E 121°51'0 0.0
2014-Sep-18 02:14N 29°57' E 121°51'0 0.0
2014-Sep-18 01:14N 29°57' E 121°51'0 0.0
2014-Sep-17 23:32N 29°57' E 121°51'0 0.0
2014-Sep-17 22:23N 29°57' E 121°51'0 0.0
2014-Sep-17 20:20N 29°57' E 121°51'0 0.0
2014-Sep-17 19:23N 29°57' E 121°51'0 0.0
2014-Sep-17 18:29N 29°57' E 121°51'0 0.0
2014-Sep-17 16:29N 29°57' E 121°51'0 0.0
2014-Sep-17 15:11N 29°57' E 121°51'0 0.0
2014-Sep-17 14:29N 29°57' E 121°51'0 0.0
2014-Sep-17 12:29N 29°57' E 121°51'0 0.0
2014-Sep-17 10:17N 29°57' E 121°51'0 0.0
2014-Sep-17 08:29N 29°57' E 121°51'0 0.0
2014-Sep-17 07:29N 29°57' E 121°51'0 0.0
2014-Sep-17 06:29N 29°57' E 121°51'0 0.0
2014-Sep-17 05:32N 29°57' E 121°51'0 0.0
2014-Sep-17 02:23N 29°57' E 121°51'0 0.0
2014-Sep-17 00:11N 29°57' E 121°51'0 0.0
2014-Sep-16 23:29N 29°57' E 121°51'0 0.0
2014-Sep-16 20:05N 29°57' E 121°51'0 0.0
2014-Sep-16 19:23N 29°57' E 121°51'0 0.0
2014-Sep-16 18:29N 29°57' E 121°51'0 0.0
2014-Sep-16 17:23N 29°57' E 121°51'0 0.0
2014-Sep-16 16:29N 29°57' E 121°51'0 0.0
2014-Sep-16 13:17N 29°57' E 121°51'  

Dump ship's entire track history